createdAt,value
2023-03-20T00:00:31.499Z,100037.55
2023-03-20T00:03:19.639Z,100034.42
2023-03-20T00:05:47.303Z,100031.29
2023-03-20T00:08:14.450Z,100033.15
2023-03-20T00:10:44.060Z,100030.55
2023-03-20T00:13:21.293Z,100034.02
2023-03-20T00:15:48.543Z,100026.78
2023-03-20T00:18:23.339Z,100031.86
2023-03-20T00:20:51.807Z,100034.04
2023-03-20T00:23:19.674Z,100033.11
2023-03-20T00:25:48.153Z,100035.48
2023-03-20T00:28:32.664Z,100036.28
2023-03-20T00:31:00.288Z,100030.42
2023-03-20T00:33:28.447Z,100029.52
2023-03-20T00:35:56.206Z,100023.90
2023-03-20T00:38:23.654Z,100022.07
2023-03-20T00:40:50.654Z,100023.70
2023-03-20T00:43:20.360Z,100021.98
2023-03-20T00:45:48.388Z,100017.67
2023-03-20T00:48:17.034Z,100015.96
2023-03-20T00:50:45.626Z,100016.48
2023-03-20T00:53:14.338Z,100014.41
2023-03-20T00:55:42.317Z,100011.82
2023-03-20T00:58:14.458Z,100009.39
2023-03-20T01:00:44.032Z,100008.70
2023-03-20T01:03:18.771Z,100005.95
2023-03-20T01:05:48.579Z,100003.19
2023-03-20T01:08:21.427Z,100001.63
2023-03-20T01:10:51.837Z,100002.49
2023-03-20T01:13:25.305Z,100002.16
2023-03-20T01:15:53.466Z,100002.48
2023-03-20T01:18:21.984Z,99999.55
2023-03-20T01:20:49.915Z,99996.09
2023-03-20T01:23:20.832Z,99998.33
2023-03-20T01:25:48.400Z,99999.98
2023-03-20T01:28:18.579Z,100001.98
2023-03-20T01:30:48.749Z,99997.58
2023-03-20T01:33:18.182Z,99994.35
2023-03-20T01:35:48.033Z,99994.77
2023-03-20T01:38:19.981Z,99992.38
2023-03-20T01:40:53.473Z,99994.16
2023-03-20T01:43:24.846Z,99995.14
2023-03-20T01:46:00.663Z,99997.33
2023-03-20T01:48:38.086Z,99989.67
2023-03-20T01:51:04.005Z,99990.30
2023-03-20T01:53:32.094Z,99990.33
2023-03-20T01:56:02.105Z,99983.91
2023-03-20T01:58:58.403Z,99979.77
2023-03-20T02:01:29.048Z,99975.48
2023-03-20T02:03:59.558Z,99971.35
2023-03-20T02:06:55.989Z,99969.83
2023-03-20T02:09:31.780Z,99974.64
2023-03-20T02:12:00.781Z,99975.84
2023-03-20T02:14:29.571Z,99973.98
2023-03-20T02:17:08.267Z,99972.60
2023-03-20T02:20:04.103Z,99974.09
2023-03-20T02:23:01.149Z,99974.73
2023-03-20T02:26:12.553Z,99976.41
2023-03-20T02:29:18.815Z,99973.70
2023-03-20T02:32:23.178Z,99971.49
2023-03-20T02:35:28.374Z,99971.17
2023-03-20T02:38:22.070Z,99973.10
2023-03-20T02:41:00.286Z,99974.53
2023-03-20T02:43:34.837Z,99972.68
2023-03-20T02:46:23.980Z,99972.35
2023-03-20T02:48:58.281Z,99966.34
2023-03-20T02:51:34.961Z,99970.98
2023-03-20T02:54:19.909Z,99967.67
2023-03-20T02:57:00.020Z,99961.82
2023-03-20T02:59:34.458Z,99965.66
2023-03-20T03:02:07.082Z,99963.13
2023-03-20T03:04:39.889Z,99965.58
2023-03-20T03:07:14.784Z,99964.05
2023-03-20T03:09:47.412Z,99966.12
2023-03-20T03:12:18.407Z,99963.36
2023-03-20T03:14:49.329Z,99960.95
2023-03-20T03:17:23.585Z,99958.00
2023-03-20T03:19:55.107Z,99961.28
2023-03-20T03:22:24.569Z,99962.48
2023-03-20T03:24:53.925Z,99962.96
2023-03-20T03:27:26.300Z,99956.20
2023-03-20T03:29:57.220Z,99954.59
2023-03-20T03:32:30.727Z,99954.41
2023-03-20T03:34:59.916Z,99953.88
2023-03-20T03:37:38.377Z,99952.14
2023-03-20T03:40:14.946Z,99952.98
2023-03-20T03:42:49.936Z,99947.61
2023-03-20T03:45:21.405Z,99948.12
2023-03-20T03:47:55.863Z,99943.11
2023-03-20T03:50:29.982Z,99946.10
2023-03-20T03:53:01.891Z,99943.38
2023-03-20T03:55:37.261Z,99947.02
2023-03-20T03:58:14.791Z,99943.41
2023-03-20T04:00:46.575Z,99944.13
2023-03-20T04:03:15.677Z,99939.67
2023-03-20T04:05:46.308Z,99936.02
2023-03-20T04:08:16.335Z,99932.93
2023-03-20T04:10:43.723Z,99930.84
2023-03-20T04:13:11.961Z,99929.27
2023-03-20T04:15:39.623Z,99931.64
2023-03-20T04:18:08.548Z,99935.42
2023-03-20T04:20:38.313Z,99933.69
2023-03-20T04:23:06.407Z,99938.14
2023-03-20T04:25:34.372Z,99936.90
2023-03-20T04:28:01.928Z,99939.85
2023-03-20T04:31:05.295Z,99939.16
2023-03-20T04:33:49.477Z,99943.83
2023-03-20T04:36:31.100Z,99940.55
2023-03-20T04:39:08.644Z,99939.20
2023-03-20T04:41:35.865Z,99940.27
2023-03-20T04:44:06.292Z,99934.95
2023-03-20T04:46:35.132Z,99936.73
2023-03-20T04:49:06.631Z,99936.73
2023-03-20T04:51:34.035Z,99936.92
2023-03-20T04:54:01.397Z,99942.96
2023-03-20T04:56:28.849Z,99944.83
2023-03-20T04:59:08.312Z,99943.20
2023-03-20T05:01:36.073Z,99945.02
2023-03-20T05:04:03.339Z,99947.54
2023-03-20T05:06:33.628Z,99947.11
2023-03-20T05:09:01.589Z,99945.77
2023-03-20T05:11:31.000Z,99947.03
2023-03-20T05:14:33.509Z,99946.06
2023-03-20T05:17:19.862Z,99952.50
2023-03-20T05:20:07.358Z,99953.48
2023-03-20T05:22:41.934Z,99954.77
2023-03-20T05:25:19.352Z,99950.85
2023-03-20T05:28:18.467Z,99952.41
2023-03-20T05:31:09.696Z,99956.59
2023-03-20T05:34:05.388Z,99951.18
2023-03-20T05:36:58.444Z,99944.36
2023-03-20T05:39:51.366Z,99949.35
2023-03-20T05:42:34.227Z,99945.65
2023-03-20T05:45:18.592Z,99944.95
2023-03-20T05:48:11.358Z,99947.33
2023-03-20T05:50:56.523Z,99944.56
2023-03-20T05:53:55.752Z,99942.05
2023-03-20T05:56:23.059Z,99945.77
2023-03-20T05:59:10.754Z,99946.23
2023-03-20T06:01:54.028Z,99941.80
2023-03-20T06:04:25.951Z,99941.05
2023-03-20T06:07:03.103Z,99941.27
2023-03-20T06:09:30.204Z,99941.13
2023-03-20T06:11:57.637Z,99941.69
2023-03-20T06:14:25.166Z,99939.70
2023-03-20T06:16:57.440Z,99938.63
2023-03-20T06:19:26.119Z,99937.65
2023-03-20T06:21:53.383Z,99938.67
2023-03-20T06:24:21.499Z,99933.27
2023-03-20T06:26:48.964Z,99931.57
2023-03-20T06:29:16.109Z,99926.20
2023-03-20T06:31:43.931Z,99927.48
2023-03-20T06:34:14.920Z,99923.27
2023-03-20T06:36:45.979Z,99923.22
2023-03-20T06:39:19.562Z,99922.01
2023-03-20T06:41:47.113Z,99924.48
2023-03-20T06:44:14.448Z,99921.33
2023-03-20T06:47:01.966Z,99923.12
2023-03-20T06:49:29.151Z,99921.89
2023-03-20T06:51:56.198Z,99927.71
2023-03-20T06:54:26.198Z,99932.25
2023-03-20T06:56:53.672Z,99931.36
2023-03-20T06:59:21.757Z,99931.91
2023-03-20T07:01:49.522Z,99932.73
2023-03-20T07:04:17.431Z,99936.33
2023-03-20T07:06:49.050Z,99939.44
2023-03-20T07:09:17.798Z,99940.90
2023-03-20T07:11:45.129Z,99935.61
2023-03-20T07:14:12.667Z,99940.14
2023-03-20T07:16:47.376Z,99939.41
2023-03-20T07:19:15.329Z,99945.65
2023-03-20T07:21:44.567Z,99941.09
2023-03-20T07:24:12.181Z,99939.08
2023-03-20T07:26:41.323Z,99937.95
2023-03-20T07:29:08.538Z,99939.80
2023-03-20T07:31:36.580Z,99937.59
2023-03-20T07:34:16.701Z,99936.06
2023-03-20T07:36:44.558Z,99937.02
2023-03-20T07:39:13.290Z,99935.55
2023-03-20T07:41:42.328Z,99934.16
2023-03-20T07:44:10.630Z,99938.17
2023-03-20T07:46:51.401Z,99939.85
2023-03-20T07:49:18.898Z,99942.02
2023-03-20T07:51:46.291Z,99947.73
2023-03-20T07:54:14.010Z,99946.60
2023-03-20T07:56:41.445Z,99945.31
2023-03-20T07:59:08.759Z,99945.04
2023-03-20T08:01:36.434Z,99943.68
2023-03-20T08:04:03.843Z,99945.08
2023-03-20T08:06:31.008Z,99943.20
2023-03-20T08:08:59.017Z,99939.21
2023-03-20T08:11:26.742Z,99933.14
2023-03-20T08:13:53.737Z,99933.34
2023-03-20T08:16:20.982Z,99934.09
2023-03-20T08:18:48.479Z,99930.52
2023-03-20T08:21:15.945Z,99924.17
2023-03-20T08:23:43.343Z,99926.01
2023-03-20T08:26:10.713Z,99929.08
2023-03-20T08:28:46.955Z,99931.36
2023-03-20T08:31:15.346Z,99929.87
2023-03-20T08:33:42.778Z,99926.59
2023-03-20T08:36:11.704Z,99926.48
2023-03-20T08:38:39.052Z,99925.30
2023-03-20T08:41:07.441Z,99928.44
2023-03-20T08:43:34.736Z,99929.20
2023-03-20T08:46:02.260Z,99927.41
2023-03-20T08:48:29.652Z,99927.80
2023-03-20T08:50:57.254Z,99927.79
2023-03-20T08:53:24.776Z,99921.98
2023-03-20T08:55:53.254Z,99918.77
2023-03-20T08:58:21.120Z,99918.45
2023-03-20T09:00:49.039Z,99919.91
2023-03-20T09:03:18.265Z,99921.27
2023-03-20T09:05:47.228Z,99921.40
2023-03-20T09:08:15.138Z,99922.64
2023-03-20T09:10:42.567Z,99920.04
2023-03-20T09:13:25.754Z,99919.42
2023-03-20T09:15:54.559Z,99919.14
2023-03-20T09:18:22.314Z,99920.98
2023-03-20T09:20:50.029Z,99922.84
2023-03-20T09:23:19.050Z,99925.30
2023-03-20T09:25:46.401Z,99922.84
2023-03-20T09:28:13.572Z,99919.19
2023-03-20T09:30:43.801Z,99917.90
2023-03-20T09:33:11.641Z,99918.85
2023-03-20T09:35:39.004Z,99914.67
2023-03-20T09:38:06.925Z,99910.38
2023-03-20T09:40:39.476Z,99910.78
2023-03-20T09:43:17.870Z,99910.60
2023-03-20T09:45:54.362Z,99918.33
2023-03-20T09:48:24.673Z,99922.88
2023-03-20T09:50:59.777Z,99924.48
2023-03-20T09:53:33.097Z,99922.52
2023-03-20T09:56:01.046Z,99918.52
2023-03-20T09:58:32.549Z,99920.14
2023-03-20T10:01:03.163Z,99918.75
2023-03-20T10:03:38.175Z,99924.02
2023-03-20T10:06:08.935Z,99924.48
2023-03-20T10:08:39.116Z,99925.23
2023-03-20T10:11:20.671Z,99923.69
2023-03-20T10:14:00.411Z,99924.00
2023-03-20T10:16:38.766Z,99926.65
2023-03-20T10:19:12.718Z,99931.83
2023-03-20T10:21:46.337Z,99938.96
2023-03-20T10:24:21.276Z,99931.04
2023-03-20T10:26:51.448Z,99932.14
2023-03-20T10:29:26.557Z,99938.65
2023-03-20T10:32:01.466Z,99934.05
2023-03-20T10:34:42.786Z,99939.34
2023-03-20T10:37:27.452Z,99932.48
2023-03-20T10:40:10.702Z,99932.61
2023-03-20T10:42:41.138Z,99928.10
2023-03-20T10:45:16.370Z,99927.83
2023-03-20T10:47:46.211Z,99929.64
2023-03-20T10:50:20.653Z,99927.49
2023-03-20T10:52:51.098Z,99928.11
2023-03-20T10:55:21.553Z,99928.41
2023-03-20T10:57:53.988Z,99919.19
2023-03-20T11:00:24.791Z,99921.02
2023-03-20T11:02:52.098Z,99909.98
2023-03-20T11:05:31.810Z,99913.17
2023-03-20T11:08:06.886Z,99912.17
2023-03-20T11:10:37.230Z,99909.84
2023-03-20T11:13:16.920Z,99902.02
2023-03-20T11:15:44.140Z,99899.01
2023-03-20T11:18:15.118Z,99898.43
2023-03-20T11:20:48.466Z,99903.21
2023-03-20T11:23:18.863Z,99898.61
2023-03-20T11:25:54.332Z,99900.84
2023-03-20T11:28:32.470Z,99896.48
2023-03-20T11:31:05.690Z,99892.92
2023-03-20T11:33:33.464Z,99891.63
2023-03-20T11:36:01.399Z,99884.11
2023-03-20T11:38:31.445Z,99881.96
2023-03-20T11:40:58.652Z,99876.39
2023-03-20T11:43:28.746Z,99879.44
2023-03-20T11:46:00.893Z,99876.23
2023-03-20T11:48:38.610Z,99879.63
2023-03-20T11:51:10.154Z,99874.14
2023-03-20T11:53:41.059Z,99875.13
2023-03-20T11:56:13.371Z,99872.39
2023-03-20T11:58:52.229Z,99864.33
2023-03-20T12:01:19.331Z,99871.33
2023-03-20T12:03:55.511Z,99867.29
2023-03-20T12:06:27.456Z,99865.98
2023-03-20T12:09:02.051Z,99866.40
2023-03-20T12:11:44.683Z,99870.05
2023-03-20T12:14:22.754Z,99870.17
2023-03-20T12:16:54.734Z,99866.64
2023-03-20T12:19:27.087Z,99864.51
2023-03-20T12:22:02.170Z,99864.41
2023-03-20T12:24:38.086Z,99865.03
2023-03-20T12:27:18.601Z,99865.66
2023-03-20T12:29:50.101Z,99872.27
2023-03-20T12:32:24.463Z,99872.75
2023-03-20T12:34:56.886Z,99870.20
2023-03-20T12:37:25.221Z,99864.90
2023-03-20T12:39:55.654Z,99867.56
2023-03-20T12:42:34.432Z,99871.73
2023-03-20T12:45:07.320Z,99870.49
2023-03-20T12:48:16.971Z,99868.47
2023-03-20T12:50:47.322Z,99866.58
2023-03-20T12:53:30.537Z,99869.00
2023-03-20T12:56:07.713Z,99868.99
2023-03-20T12:58:42.140Z,99865.30
2023-03-20T13:01:15.498Z,99869.02
2023-03-20T13:03:55.461Z,99873.17
2023-03-20T13:06:33.627Z,99868.66
2023-03-20T13:09:27.574Z,99868.01
2023-03-20T13:12:04.761Z,99863.73
2023-03-20T13:14:43.129Z,99858.36
2023-03-20T13:17:18.406Z,99855.95
2023-03-20T13:19:56.645Z,99858.08
2023-03-20T13:22:33.564Z,99862.16
2023-03-20T13:25:03.742Z,99860.83
2023-03-20T13:27:38.768Z,99857.90
2023-03-20T13:30:14.897Z,99853.36
2023-03-20T13:32:56.534Z,99859.52
2023-03-20T13:35:41.161Z,99860.85
2023-03-20T13:38:18.797Z,99863.20
2023-03-20T13:40:48.311Z,99863.20
2023-03-20T13:43:29.988Z,99861.31
2023-03-20T13:46:04.872Z,99867.99
2023-03-20T13:48:36.712Z,99865.48
2023-03-20T13:51:12.203Z,99861.84
2023-03-20T13:53:49.942Z,99857.88
2023-03-20T13:56:28.339Z,99856.61
2023-03-20T13:59:27.815Z,99856.86
2023-03-20T14:02:02.308Z,99852.08
2023-03-20T14:04:32.049Z,99851.45
2023-03-20T14:07:00.619Z,99850.95
2023-03-20T14:09:35.380Z,99848.49
2023-03-20T14:12:06.390Z,99853.54
2023-03-20T14:14:41.847Z,99853.62
2023-03-20T14:17:22.649Z,99851.16
2023-03-20T14:19:51.595Z,99855.29
2023-03-20T14:22:22.296Z,99856.48
2023-03-20T14:24:58.450Z,99860.27
2023-03-20T14:27:45.204Z,99865.33
2023-03-20T14:30:46.784Z,99864.26
2023-03-20T14:33:31.296Z,99865.68
2023-03-20T14:36:22.270Z,99862.41
2023-03-20T14:38:58.075Z,99860.86
2023-03-20T14:41:30.780Z,99861.37
2023-03-20T14:44:17.036Z,99864.87
2023-03-20T14:46:52.410Z,99864.02
2023-03-20T14:49:48.143Z,99865.76
2023-03-20T14:52:44.164Z,99866.42
2023-03-20T14:55:49.244Z,99868.77
2023-03-20T14:58:44.816Z,99868.73
2023-03-20T15:01:20.106Z,99870.40
2023-03-20T15:03:52.384Z,99871.98
2023-03-20T15:06:21.336Z,99871.93
2023-03-20T15:08:52.104Z,99866.49
2023-03-20T15:11:21.251Z,99867.64
2023-03-20T15:13:50.764Z,99864.04
2023-03-20T15:16:26.543Z,99866.20
2023-03-20T15:18:55.981Z,99865.65
2023-03-20T15:21:30.978Z,99871.54
2023-03-20T15:23:58.746Z,99874.16
2023-03-20T15:26:27.132Z,99876.11
2023-03-20T15:29:01.815Z,99871.45
2023-03-20T15:31:32.845Z,99874.91
2023-03-20T15:34:01.297Z,99873.13
2023-03-20T15:36:31.600Z,99876.01
2023-03-20T15:39:07.193Z,99882.06
2023-03-20T15:41:38.956Z,99882.19
2023-03-20T15:44:18.991Z,99881.27
2023-03-20T15:46:55.029Z,99887.19
2023-03-20T15:49:23.487Z,99888.48
2023-03-20T15:51:52.688Z,99891.26
2023-03-20T15:54:21.149Z,99889.69
2023-03-20T15:56:58.238Z,99890.89
2023-03-20T15:59:32.068Z,99896.98
2023-03-20T16:02:01.951Z,99894.08
2023-03-20T16:04:30.038Z,99899.80
2023-03-20T16:07:00.239Z,99904.38
2023-03-20T16:09:28.697Z,99903.72
2023-03-20T16:12:01.456Z,99901.92
2023-03-20T16:14:31.305Z,99895.05
2023-03-20T16:17:01.189Z,99894.39
2023-03-20T16:19:30.232Z,99892.50
2023-03-20T16:22:00.660Z,99894.05
2023-03-20T16:24:32.984Z,99888.17
2023-03-20T16:27:00.737Z,99889.27
2023-03-20T16:29:31.220Z,99885.95
2023-03-20T16:32:04.124Z,99883.41
2023-03-20T16:34:35.727Z,99883.28
2023-03-20T16:37:08.842Z,99879.59
2023-03-20T16:39:36.028Z,99880.84
2023-03-20T16:42:22.894Z,99884.47
2023-03-20T16:44:54.540Z,99884.61
2023-03-20T16:47:24.927Z,99886.17
2023-03-20T16:50:19.185Z,99887.36
2023-03-20T16:52:58.571Z,99889.96
2023-03-20T16:55:29.359Z,99888.13
2023-03-20T16:58:00.280Z,99889.73
2023-03-20T17:00:31.073Z,99892.40
2023-03-20T17:03:08.588Z,99893.69
2023-03-20T17:05:49.334Z,99894.20
2023-03-20T17:08:18.851Z,99895.05
2023-03-20T17:10:51.600Z,99894.60
2023-03-20T17:13:18.945Z,99898.36
2023-03-20T17:15:47.121Z,99892.52
2023-03-20T17:18:16.261Z,99897.92
2023-03-20T17:20:43.839Z,99901.94
2023-03-20T17:23:16.619Z,99898.19
2023-03-20T17:25:44.300Z,99897.79
2023-03-20T17:28:17.166Z,99899.33
2023-03-20T17:30:46.240Z,99900.70
2023-03-20T17:33:15.684Z,99903.09
2023-03-20T17:35:43.140Z,99898.36
2023-03-20T17:38:16.171Z,99897.96
2023-03-20T17:40:43.248Z,99894.17
2023-03-20T17:43:13.014Z,99894.36
2023-03-20T17:45:40.768Z,99888.09
2023-03-20T17:48:15.732Z,99893.31
2023-03-20T17:50:43.117Z,99894.05
2023-03-20T17:53:14.630Z,99893.20
2023-03-20T17:55:41.877Z,99895.45
2023-03-20T17:58:13.223Z,99893.30
2023-03-20T18:00:49.830Z,99896.58
2023-03-20T18:03:18.478Z,99899.76
2023-03-20T18:05:46.342Z,99904.71
2023-03-20T18:08:20.096Z,99900.84
2023-03-20T18:10:47.510Z,99894.75
2023-03-20T18:13:14.870Z,99894.61
2023-03-20T18:15:42.661Z,99892.70
2023-03-20T18:18:10.664Z,99894.27
2023-03-20T18:20:41.388Z,99898.84
2023-03-20T18:23:09.301Z,99897.33
2023-03-20T18:25:37.067Z,99901.90
2023-03-20T18:28:06.573Z,99904.90
2023-03-20T18:30:37.789Z,99907.20
2023-03-20T18:33:06.386Z,99912.12
2023-03-20T18:35:37.518Z,99906.40
2023-03-20T18:38:06.233Z,99900.34
2023-03-20T18:40:37.178Z,99898.26
2023-03-20T18:43:07.456Z,99897.59
2023-03-20T18:45:38.893Z,99905.92
2023-03-20T18:48:07.275Z,99904.08
2023-03-20T18:50:37.979Z,99905.52
2023-03-20T18:53:07.481Z,99900.48
2023-03-20T18:55:35.745Z,99901.71
2023-03-20T18:58:04.231Z,99907.08
2023-03-20T19:00:38.179Z,99907.58
2023-03-20T19:03:07.587Z,99904.29
2023-03-20T19:05:35.001Z,99902.88
2023-03-20T19:08:05.331Z,99901.14
2023-03-20T19:10:36.252Z,99901.86
2023-03-20T19:13:05.413Z,99899.49
2023-03-20T19:15:36.281Z,99899.56
2023-03-20T19:18:04.880Z,99898.55
2023-03-20T19:20:37.337Z,99900.83
2023-03-20T19:23:07.366Z,99902.44
2023-03-20T19:25:38.952Z,99902.20
2023-03-20T19:28:07.724Z,99899.30
2023-03-20T19:30:38.046Z,99902.17
2023-03-20T19:33:14.702Z,99902.16
2023-03-20T19:36:03.274Z,99904.75
2023-03-20T19:38:31.501Z,99902.79
2023-03-20T19:41:00.096Z,99906.66
2023-03-20T19:43:30.626Z,99906.42
2023-03-20T19:45:59.255Z,99901.48
2023-03-20T19:48:46.005Z,99902.98
2023-03-20T19:51:18.302Z,99897.38
2023-03-20T19:53:46.703Z,99896.93
2023-03-20T19:56:14.780Z,99888.63
2023-03-20T19:58:43.414Z,99889.15
2023-03-20T20:01:18.645Z,99887.60
2023-03-20T20:03:46.659Z,99886.56
2023-03-20T20:06:14.562Z,99886.36
2023-03-20T20:08:48.730Z,99894.50
2023-03-20T20:11:16.986Z,99901.73
2023-03-20T20:14:07.182Z,99905.57
2023-03-20T20:16:34.033Z,99908.21
2023-03-20T20:19:01.628Z,99909.50
2023-03-20T20:24:17.413Z,99912.46
2023-03-20T20:26:53.765Z,99914.34
2023-03-20T20:29:22.264Z,99912.89
2023-03-20T20:31:49.451Z,99907.16
2023-03-20T20:39:51.987Z,99920.38
2023-03-20T20:42:20.615Z,99919.70
2023-03-20T20:44:47.799Z,99916.24
2023-03-20T20:47:15.492Z,99915.02
2023-03-20T20:49:43.224Z,99915.20
2023-03-20T20:52:11.400Z,99918.54
2023-03-20T20:54:42.382Z,99917.04
2023-03-20T20:57:10.693Z,99917.67
2023-03-20T20:59:38.340Z,99914.64
2023-03-20T21:02:10.780Z,99917.29
2023-03-20T21:04:38.247Z,99917.59
2023-03-20T21:07:11.056Z,99917.17
2023-03-20T21:09:42.573Z,99920.38
2023-03-20T21:12:34.759Z,99915.95
2023-03-20T21:15:06.853Z,99913.80
2023-03-20T21:17:34.223Z,99910.89
2023-03-20T21:20:15.234Z,99909.88
2023-03-20T21:22:42.531Z,99908.67
2023-03-20T21:25:15.022Z,99909.01
2023-03-20T21:27:42.591Z,99912.64
2023-03-20T21:30:11.545Z,99913.84
2023-03-20T21:32:39.987Z,99914.69
2023-03-20T21:35:18.789Z,99915.70
2023-03-20T21:38:37.867Z,99923.36
2023-03-20T21:40:36.834Z,99915.59
2023-03-20T21:43:04.896Z,99920.66
2023-03-20T21:46:19.045Z,99918.69
2023-03-20T21:48:54.582Z,99918.09
2023-03-20T21:54:51.270Z,99913.53
2023-03-20T21:57:23.149Z,99913.41
2023-03-20T22:02:25.308Z,99908.58
2023-03-20T22:05:41.840Z,99911.35
2023-03-20T22:11:42.406Z,99914.61
2023-03-20T22:14:37.220Z,99914.75
2023-03-20T22:17:25.870Z,99914.85
2023-03-20T22:28:15.770Z,99911.96
2023-03-20T22:34:16.214Z,99916.31
2023-03-20T22:47:16.977Z,99915.59
2023-03-20T22:49:44.455Z,99914.43
2023-03-20T22:52:37.869Z,99917.24
2023-03-20T22:55:11.399Z,99916.08
2023-03-20T22:57:45.532Z,99913.12
2023-03-20T23:00:18.855Z,99912.84
2023-03-20T23:02:47.595Z,99915.34
2023-03-20T23:05:15.157Z,99914.73
2023-03-20T23:07:43.239Z,99917.54
2023-03-20T23:10:14.420Z,99915.49
2023-03-20T23:12:44.071Z,99918.02
2023-03-20T23:15:12.967Z,99916.41
2023-03-20T23:17:40.290Z,99914.59
2023-03-20T23:20:14.450Z,99912.59
2023-03-20T23:22:44.363Z,99909.89
2023-03-20T23:25:18.637Z,99909.27
2023-03-20T23:27:54.668Z,99911.63
2023-03-20T23:30:38.107Z,99911.73
2023-03-20T23:33:07.784Z,99907.16
2023-03-20T23:35:37.698Z,99910.48
2023-03-20T23:38:04.906Z,99910.70
2023-03-20T23:40:32.390Z,99912.59
2023-03-20T23:42:59.574Z,99913.13
2023-03-20T23:45:26.834Z,99914.86
2023-03-20T23:47:54.256Z,99915.23
2023-03-20T23:50:42.830Z,99914.20
2023-03-20T23:53:19.989Z,99911.92
2023-03-20T23:55:49.255Z,99913.10
2023-03-20T23:58:18.223Z,99915.39
